Stations météo

réclame
Mon MeteoGroup
Puebla De D. Rodrigo, Espagne (8271): Température de l'air & dewpoint: 08.08.2018 19:00:00 - 14.08.2018 19:00:00 (CEST)Puebla De D. Rodrigo, Espagne (8271): Vitesse du vent & gusts: 08.08.2018 19:00:00 - 14.08.2018 19:00:00 (CEST)Puebla De D. Rodrigo, Espagne (8271): Direction du vent: 08.08.2018 19:00:00 - 14.08.2018 19:00:00 (CEST)Puebla De D. Rodrigo, Espagne (8271): reduced air pressure: 08.08.2018 19:00:00 - 14.08.2018 19:00:00 (CEST)Puebla De D. Rodrigo, Espagne (8271): Quantités de précipitations: 08.08.2018 19:00:00 - 14.08.2018 19:00:00 (CEST)
Date & Time tt [°C] td [°C] ff [km/h] ff [knt] fx [km/h] fx [knt] dd ppp [hPa] rr [mm]
14.08.2018 19:00:00 - - - - - - - - -
14.08.2018 18:00:00 35,5 12,4 4 2 19 10 SE 1006,5 0,0
14.08.2018 17:00:00 34,7 11,8 10 5 19 11 ENE 1006,8 0,0
14.08.2018 16:00:00 35,1 12,1 1 0 17 9 WSW 1007,2 0,0
14.08.2018 15:00:00 34,3 12,6 11 6 22 12 SSW 1007,8 0,0
14.08.2018 14:00:00 33,9 13,4 4 2 20 11 SSW 1008,3 -
14.08.2018 13:00:00 33,1 14,7 2 1 15 8 E 1008,7 0,0
14.08.2018 12:00:00 30,9 14,0 4 2 12 7 ENE 1009,3 0,0
14.08.2018 11:00:00 26,5 13,3 4 2 10 6 SE 1010,3 0,0
14.08.2018 10:00:00 23,2 12,8 4 2 7 4 E 1010,8 0,0
14.08.2018 09:00:00 19,3 11,6 2 1 6 3 SE 1011,3 0,0
14.08.2018 08:00:00 16,5 10,3 0 0 4 2 N 1011,5 -
14.08.2018 07:00:00 15,4 9,6 2 1 5 3 SW 1011,2 0,0
14.08.2018 06:00:00 17,4 10,0 1 1 3 2 SW 1010,2 0,0
14.08.2018 05:00:00 18,4 9,4 0 0 3 2 N 1010,1 0,0
14.08.2018 04:00:00 19,6 9,8 0 0 9 5 SSW 1009,9 0,0
14.08.2018 03:00:00 21,0 9,6 4 2 10 5 SW 1009,7 0,0
14.08.2018 02:00:00 23,1 10,5 4 2 7 4 W 1008,9 -
14.08.2018 01:00:00 23,4 11,1 6 3 9 5 WSW 1008,3 0,0
14.08.2018 00:00:00 24,6 11,9 0 0 10 6 W 1007,9 0,0
13.08.2018 23:00:00 25,3 11,8 0 0 11 6 WSW 1007,7 0,0
13.08.2018 22:00:00 26,8 12,1 6 3 14 8 WSW 1006,4 0,0
13.08.2018 21:00:00 28,9 12,7 7 4 24 13 W 1005,5 0,0
13.08.2018 20:00:00 30,1 12,1 11 6 27 14 WSW 1005,1 -
13.08.2018 19:00:00 32,0 11,8 10 5 24 13 W 1005,0 0,0
13.08.2018 18:00:00 33,5 11,9 9 5 28 15 WSW 1004,8 0,0
13.08.2018 17:00:00 33,6 13,2 11 6 29 16 W 1005,3 0,0
13.08.2018 16:00:00 32,7 14,8 13 7 29 16 WSW 1005,6 0,0
13.08.2018 15:00:00 32,8 15,8 11 6 25 13 W 1006,2 0,0
13.08.2018 14:00:00 31,9 15,4 8 4 22 12 W 1006,7 -
13.08.2018 13:00:00 29,5 15,6 11 6 26 14 WSW 1007,8 0,0
13.08.2018 12:00:00 28,7 15,3 7 4 22 12 W 1008,1 0,0
13.08.2018 11:00:00 26,6 15,0 5 3 14 7 W 1008,5 0,0
13.08.2018 10:00:00 25,7 16,2 5 3 14 7 WSW 1008,7 0,0
13.08.2018 09:00:00 22,2 14,0 3 1 11 6 E 1009,0 0,0
13.08.2018 08:00:00 19,6 13,9 5 3 9 5 WSW 1009,1 -
13.08.2018 07:00:00 19,5 12,2 1 1 11 6 SW 1008,3 0,0
13.08.2018 06:00:00 21,3 12,2 8 4 13 7 WSW 1008,1 0,0
13.08.2018 05:00:00 21,3 10,8 0 0 6 4 NNW 1008,2 0,0
13.08.2018 04:00:00 22,9 10,6 4 2 10 6 WSW 1008,3 0,0
13.08.2018 03:00:00 23,8 10,2 6 3 12 6 W 1008,2 0,0
13.08.2018 02:00:00 24,6 10,0 8 5 11 6 SW 1007,9 -
13.08.2018 01:00:00 25,6 10,2 4 2 11 6 WSW 1007,5 0,0
13.08.2018 00:00:00 27,0 11,1 4 2 14 7 SW 1007,0 0,0
12.08.2018 23:00:00 28,4 11,0 5 3 13 7 W 1006,6 0,0
12.08.2018 22:00:00 29,5 11,1 6 3 15 8 WSW 1005,7 0,0
12.08.2018 21:00:00 30,9 12,3 6 3 20 11 W 1004,8 0,0
12.08.2018 20:00:00 32,7 13,9 6 3 21 11 W 1004,3 -
12.08.2018 19:00:00 34,6 15,0 9 5 33 18 W 1004,1 0,0
12.08.2018 18:00:00 34,9 14,2 10 6 35 19 WSW 1004,4 0,0
12.08.2018 17:00:00 36,3 16,5 12 7 29 16 SSW 1004,7 0,0
12.08.2018 16:00:00 35,5 15,8 19 11 35 19 SSW 1005,5 0,0
12.08.2018 15:00:00 35,7 17,0 13 7 39 21 SSW 1006,4 0,0
12.08.2018 14:00:00 34,7 16,6 13 7 36 19 SSW 1007,2 -
12.08.2018 13:00:00 34,1 17,8 17 9 34 19 SSW 1007,8 0,0
12.08.2018 12:00:00 32,2 18,4 19 10 29 16 SSW 1008,5 0,0
12.08.2018 11:00:00 29,6 17,8 14 8 22 12 S 1009,2 0,0
12.08.2018 10:00:00 27,1 17,9 4 2 9 5 E 1009,8 0,0
12.08.2018 09:00:00 24,5 17,2 2 1 5 3 SSE 1010,4 0,0
12.08.2018 08:00:00 20,4 15,8 1 0 5 3 ENE 1011,0 -
12.08.2018 07:00:00 21,3 15,8 1 1 - - S 1010,3 -
12.08.2018 06:00:00 21,0 16,0 2 1 11 6 SE 1011,0 0,0
12.08.2018 05:00:00 20,7 15,0 3 1 5 3 ESE 1010,9 0,0
12.08.2018 04:00:00 21,4 14,3 2 1 6 3 SE 1010,8 0,0
12.08.2018 03:00:00 23,3 14,3 3 2 8 5 WNW 1010,2 0,0
12.08.2018 02:00:00 24,1 14,2 3 1 10 5 W 1010,7 -
12.08.2018 01:00:00 24,4 13,6 3 2 16 9 ESE 1011,1 0,0
12.08.2018 00:00:00 25,2 14,0 15 8 71 38 SSW 1011,7 0,0
11.08.2018 23:00:00 - - 12 6 - - ESE - -
11.08.2018 22:00:00 - - 5 3 7 4 WSW - 0,0
11.08.2018 21:00:00 - - 2 1 12 6 WSW - 0,0
11.08.2018 20:00:00 - - 1 1 13 7 W - -
11.08.2018 19:00:00 - - 4 2 23 13 W - 0,0
11.08.2018 18:00:00 36,6 13,9 9 5 23 13 SSW 1006,7 0,0
11.08.2018 17:00:00 37,3 14,6 4 2 14 7 NNE 1006,5 0,0
11.08.2018 16:00:00 36,1 14,7 5 3 24 13 W 1006,7 0,0
11.08.2018 15:00:00 36,9 16,0 2 1 18 10 W 1006,5 0,0
11.08.2018 14:00:00 34,6 13,9 4 2 16 9 NE 1006,9 -
11.08.2018 13:00:00 33,7 12,6 5 3 14 7 SE 1007,1 0,0
11.08.2018 12:00:00 31,5 12,8 6 3 11 6 E 1007,4 0,0
11.08.2018 11:00:00 28,8 13,1 4 2 10 6 ESE 1008,1 0,0
11.08.2018 10:00:00 24,5 11,4 4 2 8 4 NE 1008,8 0,0
11.08.2018 09:00:00 19,5 8,8 5 3 8 4 E 1009,9 0,0
11.08.2018 08:00:00 16,5 7,7 1 1 6 3 SSE 1010,5 -
11.08.2018 07:00:00 - - 0 0 2 1 N - 0,0
11.08.2018 06:00:00 - - 0 0 6 4 S - 0,0
11.08.2018 05:00:00 18,4 6,8 1 0 5 3 ESE 1010,1 0,0
11.08.2018 04:00:00 - - 2 1 5 3 S - 0,0
11.08.2018 03:00:00 22,1 7,4 6 3 10 5 SW 1009,4 0,0
11.08.2018 02:00:00 21,3 5,9 1 1 10 6 NE 1009,6 -
11.08.2018 01:00:00 22,5 6,2 0 0 14 7 N 1009,2 0,0
11.08.2018 00:00:00 25,7 6,8 7 4 12 6 WSW 1008,6 0,0
10.08.2018 23:00:00 26,2 7,3 8 4 11 6 WSW 1008,5 0,0
10.08.2018 22:00:00 26,9 6,8 5 3 12 7 SW 1008,3 0,0
10.08.2018 21:00:00 30,2 8,0 4 2 16 9 W 1007,6 0,0
10.08.2018 20:00:00 32,5 8,7 3 1 16 9 WNW 1007,4 -
10.08.2018 19:00:00 33,2 9,3 8 4 16 9 NE 1007,2 0,0
10.08.2018 18:00:00 - - 4 2 19 10 N - 0,0
10.08.2018 17:00:00 - - 4 2 22 12 SSE - 0,0
10.08.2018 16:00:00 33,7 12,1 8 4 19 11 E 1007,1 0,0
10.08.2018 15:00:00 - - 8 4 23 12 ENE - 0,0
10.08.2018 14:00:00 32,9 13,1 8 4 20 11 ESE 1007,2 -
10.08.2018 13:00:00 31,0 12,8 5 3 16 8 SSE 1007,5 0,0
10.08.2018 12:00:00 29,4 13,2 5 3 11 6 E 1007,8 0,0
10.08.2018 11:00:00 25,6 11,3 4 2 10 6 ENE 1008,7 0,0
10.08.2018 10:00:00 21,3 8,5 4 2 8 5 E 1009,4 0,0
10.08.2018 09:00:00 17,2 7,8 3 2 6 4 ENE 1010,3 0,0
10.08.2018 08:00:00 14,8 6,8 0 0 3 2 N 1010,9 -
10.08.2018 07:00:00 13,0 5,9 1 1 4 2 SE 1011,2 0,0
10.08.2018 06:00:00 13,5 5,6 1 0 4 2 E 1011,1 0,0
10.08.2018 05:00:00 14,5 5,3 1 1 3 2 ENE 1011,0 0,0
10.08.2018 04:00:00 15,6 5,0 0 0 3 1 E 1010,8 0,0
10.08.2018 03:00:00 16,5 3,9 0 0 6 3 NE 1010,5 0,0
10.08.2018 02:00:00 18,8 4,1 1 0 7 4 SW 1010,1 -
10.08.2018 01:00:00 20,6 4,6 2 1 6 3 WSW 1009,7 0,0
10.08.2018 00:00:00 22,5 5,5 4 2 7 4 W 1009,2 0,0
09.08.2018 23:00:00 22,8 5,3 5 3 11 6 WSW 1009,2 0,0
09.08.2018 22:00:00 24,7 5,5 8 4 13 7 WSW 1008,8 0,0
09.08.2018 21:00:00 - - 5 3 18 10 WSW - 0,0
09.08.2018 20:00:00 28,4 7,6 5 3 18 10 W 1008,1 -
09.08.2018 19:00:00 - - 5 3 19 11 W - 0,0
09.08.2018 18:00:00 - - 10 5 24 13 SW - 0,0
09.08.2018 17:00:00 31,1 11,0 8 4 23 12 SW 1007,6 0,0
09.08.2018 16:00:00 30,7 10,6 8 4 24 13 W 1007,5 0,0
09.08.2018 15:00:00 30,6 13,0 4 2 21 11 W 1007,5 0,0
09.08.2018 14:00:00 28,9 12,3 8 4 21 12 W 1007,9 -
09.08.2018 13:00:00 28,4 12,3 7 4 21 11 W 1008,0 0,0
09.08.2018 12:00:00 25,8 13,3 8 4 19 10 W 1008,6 0,0
09.08.2018 11:00:00 23,1 13,6 5 3 16 9 SW 1009,0 0,0
09.08.2018 10:00:00 - - 4 2 13 7 W - 0,0
09.08.2018 09:00:00 - - 4 2 13 7 WSW - 0,0
09.08.2018 08:00:00 - - 6 4 11 6 WSW - -
09.08.2018 07:00:00 15,8 12,7 1 1 13 7 NW 1010,5 0,0
09.08.2018 06:00:00 16,6 12,3 8 5 13 7 SW 1010,4 0,0
09.08.2018 05:00:00 17,6 11,7 9 5 15 8 SW 1010,2 0,0
09.08.2018 04:00:00 19,2 9,4 2 1 18 10 NW 1009,8 0,0
09.08.2018 03:00:00 20,6 8,3 6 3 21 11 WSW 1009,7 0,0
09.08.2018 02:00:00 21,5 7,7 4 2 14 8 W 1009,4 -
09.08.2018 01:00:00 23,1 7,6 10 5 19 10 WSW 1009,1 0,0
09.08.2018 00:00:00 24,3 9,0 6 3 17 9 W 1009,0 0,0
08.08.2018 23:00:00 25,2 9,4 8 4 12 7 WSW 1008,6 0,0
08.08.2018 22:00:00 26,4 10,2 2 1 16 9 WSW 1008,3 0,0
08.08.2018 21:00:00 28,3 10,5 6 3 21 12 W 1008,1 0,0
08.08.2018 20:00:00 - - 7 4 26 14 W - -
08.08.2018 19:00:00 - - 11 6 35 19 WSW - 0,0

tt = Température de l'air
td = dewpoint
ff = Vitesse du vent
fx = gusts
dd = Direction du vent
ppp = reduced air pressure
rr = Quantités de précipitations

stations d'obs. à proximité